createdAt,value
2019-01-09T00:01:52.567Z,17.700001
2019-01-09T00:07:15.300Z,16.799999
2019-01-09T00:12:49.358Z,17.6
2019-01-09T00:18:12.230Z,15.8
2019-01-09T00:23:39.044Z,17.200001
2019-01-09T00:29:03.553Z,10.6
2019-01-09T00:34:37.932Z,9.3
2019-01-09T00:40:01.959Z,6.4
2019-01-09T00:45:25.451Z,10.9
2019-01-09T00:50:57.700Z,12.7
2019-01-09T00:56:29.246Z,14.1
2019-01-09T01:02:02.206Z,16.299999
2019-01-09T01:07:25.151Z,13
2019-01-09T01:12:57.402Z,20.799999
2019-01-09T01:18:29.742Z,18.299999
2019-01-09T01:24:03.800Z,22.799999
2019-01-09T01:29:34.960Z,18.1
2019-01-09T01:35:09.196Z,18.9
2019-01-09T01:40:42.412Z,15.3
2019-01-09T01:46:07.461Z,20.4
2019-01-09T01:51:32.078Z,23.799999
2019-01-09T01:56:54.831Z,25.1
2019-01-09T02:02:27.498Z,21.9
2019-01-09T02:07:50.307Z,24.4
2019-01-09T02:13:23.414Z,20.799999
2019-01-09T02:18:48.012Z,23.4
2019-01-09T02:24:23.175Z,20.9
2019-01-09T02:29:46.672Z,21
2019-01-09T02:35:09.472Z,17.5
2019-01-09T02:40:44.422Z,14.2
2019-01-09T02:46:08.332Z,12.3
2019-01-09T02:51:42.072Z,12.8
2019-01-09T02:57:16.093Z,11.2
2019-01-09T03:02:40.009Z,16.200001
2019-01-09T03:08:04.653Z,16.299999
2019-01-09T03:13:40.413Z,17.6
2019-01-09T03:19:04.590Z,17.5
2019-01-09T03:24:28.377Z,14.5
2019-01-09T03:30:00.655Z,18.5
2019-01-09T03:35:33.411Z,19.5
2019-01-09T03:40:56.659Z,11.1
2019-01-09T03:46:28.809Z,10.9
2019-01-09T03:52:04.465Z,12.3
2019-01-09T03:57:39.740Z,11.4
2019-01-09T04:03:03.724Z,10.6
2019-01-09T04:08:26.686Z,11.3
2019-01-09T04:14:03.690Z,13.3
2019-01-09T04:19:27.777Z,12.2
2019-01-09T04:24:51.922Z,9.9
2019-01-09T04:30:16.534Z,11.7
2019-01-09T04:35:39.269Z,11.2
2019-01-09T04:41:13.849Z,14.2
2019-01-09T04:46:49.126Z,7
2019-01-09T04:52:22.055Z,11.3
2019-01-09T04:57:46.072Z,15.7
2019-01-09T05:03:21.361Z,13
2019-01-09T05:08:44.161Z,10.3
2019-01-09T05:14:07.999Z,12.8
2019-01-09T05:19:43.143Z,8
2019-01-09T05:25:14.953Z,12.7
2019-01-09T05:30:48.576Z,9.7
2019-01-09T05:36:22.219Z,11
2019-01-09T05:41:55.022Z,10
2019-01-09T05:47:17.981Z,9.4
2019-01-09T05:52:41.753Z,6.5
2019-01-09T05:58:14.332Z,10.5
2019-01-09T06:03:37.761Z,7.1
2019-01-09T06:09:01.684Z,9.8
2019-01-09T06:14:34.669Z,7.9
2019-01-09T06:19:57.689Z,12.3
2019-01-09T06:25:20.353Z,9.4
2019-01-09T06:30:56.199Z,11
2019-01-09T06:36:29.829Z,12.3
2019-01-09T06:41:52.481Z,13.8
2019-01-09T06:47:15.412Z,11.4
2019-01-09T06:52:38.206Z,13.7
2019-01-09T06:58:01.455Z,12
2019-01-09T07:03:24.844Z,17.200001
2019-01-09T07:08:48.208Z,16.700001
2019-01-09T07:14:11.031Z,16.6
2019-01-09T07:19:33.758Z,15.4
2019-01-09T07:25:06.907Z,16.6
2019-01-09T07:30:29.641Z,14.1
2019-01-09T07:36:01.546Z,10.5
2019-01-09T07:41:33.902Z,14
2019-01-09T07:46:57.097Z,11
2019-01-09T07:52:31.798Z,14.6
2019-01-09T07:58:04.902Z,12.5
2019-01-09T08:03:36.727Z,10.9
2019-01-09T08:08:59.573Z,7.1
2019-01-09T08:14:22.815Z,11.4
2019-01-09T08:19:55.428Z,8.9
2019-01-09T08:25:18.460Z,8.3
2019-01-09T08:30:50.465Z,10.9
2019-01-09T08:36:13.558Z,12.1
2019-01-09T08:41:37.304Z,9.6
2019-01-09T08:47:01.512Z,9.8
2019-01-09T08:52:34.567Z,7.3
2019-01-09T08:58:07.901Z,8.6
2019-01-09T09:03:29.977Z,8.5
2019-01-09T09:08:54.122Z,9.7
2019-01-09T09:14:17.964Z,6.4
2019-01-09T09:19:40.984Z,6.8
2019-01-09T09:25:14.142Z,6.6
2019-01-09T09:30:47.619Z,8.8
2019-01-09T09:36:21.289Z,7
2019-01-09T09:41:58.375Z,6.3
2019-01-09T09:47:34.077Z,8.4
2019-01-09T09:53:06.242Z,5.4
2019-01-09T09:58:43.691Z,8.4
2019-01-09T10:04:07.868Z,7.9
2019-01-09T10:09:44.863Z,4.4
2019-01-09T10:15:19.989Z,6.6
2019-01-09T10:20:54.355Z,6
2019-01-09T10:26:25.578Z,5
2019-01-09T10:31:59.989Z,7.4
2019-01-09T10:37:33.057Z,4.4
2019-01-09T10:42:55.949Z,6.1
2019-01-09T10:48:28.041Z,7.8
2019-01-09T10:54:01.994Z,11.1
2019-01-09T10:59:35.382Z,8.2
2019-01-09T11:04:59.235Z,7
2019-01-09T11:10:22.306Z,8.6
2019-01-09T11:15:55.742Z,11.1
2019-01-09T11:21:28.469Z,8
2019-01-09T11:26:51.862Z,7.3
2019-01-09T11:32:16.142Z,7.7
2019-01-09T11:37:39.246Z,10.2
2019-01-09T11:43:03.710Z,10.1
2019-01-09T11:48:38.242Z,6.2
2019-01-09T11:54:01.030Z,10.1
2019-01-09T11:59:23.728Z,9.1
2019-01-09T12:04:55.971Z,8.2
2019-01-09T12:10:30.086Z,6.4
2019-01-09T12:16:07.866Z,8.2
2019-01-09T12:21:27.405Z,4.4
2019-01-09T12:26:52.374Z,6.1
2019-01-09T12:32:15.394Z,5.2
2019-01-09T12:37:37.786Z,7.8
2019-01-09T12:43:02.186Z,10.3
2019-01-09T12:48:25.034Z,6.3
2019-01-09T12:53:49.401Z,9.5
2019-01-09T12:59:21.346Z,8.8
2019-01-09T13:04:39.014Z,4.8
2019-01-09T13:10:01.711Z,7.3
2019-01-09T13:15:24.418Z,7.9
2019-01-09T13:20:47.375Z,10.3
2019-01-09T13:26:11.131Z,6.6
2019-01-09T13:31:33.940Z,6.3
2019-01-09T13:36:56.627Z,9.4
2019-01-09T13:42:19.436Z,9.1
2019-01-09T13:47:42.115Z,4.9
2019-01-09T13:53:05.582Z,10.1
2019-01-09T13:58:29.564Z,7.6
2019-01-09T14:03:52.216Z,10.2
2019-01-09T14:09:39.318Z,7.1
2019-01-09T14:14:55.758Z,9.6
2019-01-09T14:20:17.969Z,4.6
2019-01-09T14:25:40.802Z,9.8
2019-01-09T14:31:13.513Z,7.7
2019-01-09T14:36:36.337Z,8.7
2019-01-09T14:41:59.326Z,8.7
2019-01-09T14:47:22.094Z,10.5
2019-01-09T14:52:45.774Z,8
2019-01-09T14:58:10.634Z,8.9
2019-01-09T15:03:33.355Z,5.6
2019-01-09T15:08:57.276Z,8.8
2019-01-09T15:14:21.083Z,7.4
2019-01-09T15:19:47.429Z,7.4
2019-01-09T15:25:14.973Z,11.3
2019-01-09T15:30:37.656Z,12.4
2019-01-09T15:36:01.104Z,8.4
2019-01-09T15:41:35.124Z,7.9
2019-01-09T15:46:58.495Z,8.4
2019-01-09T15:52:22.631Z,9.1
2019-01-09T15:57:46.771Z,8
2019-01-09T16:03:12.505Z,6
2019-01-09T16:08:36.151Z,8.3
2019-01-09T16:13:58.919Z,9.4
2019-01-09T16:19:23.467Z,4.6
2019-01-09T16:24:46.228Z,10.1
2019-01-09T16:30:10.512Z,6.8
2019-01-09T16:35:33.978Z,7
2019-01-09T16:40:57.685Z,11.9
2019-01-09T16:46:21.250Z,7
2019-01-09T16:51:44.009Z,6.4
2019-01-09T16:57:19.253Z,7.5
2019-01-09T17:02:42.058Z,6.7
2019-01-09T17:08:04.924Z,9.1
2019-01-09T17:13:27.813Z,7.8
2019-01-09T17:18:50.753Z,7.4
2019-01-09T17:24:13.532Z,9
2019-01-09T17:29:37.065Z,9.7
2019-01-09T17:35:00.165Z,7.9
2019-01-09T17:40:24.384Z,8.5
2019-01-09T17:45:47.197Z,8.7
2019-01-09T17:51:10.021Z,6.7
2019-01-09T17:56:32.710Z,7.6
2019-01-09T18:01:56.147Z,6.6
2019-01-09T18:07:29.189Z,10.2
2019-01-09T18:12:53.340Z,6.2
2019-01-09T18:18:16.063Z,7.4
2019-01-09T18:23:49.795Z,8.8
2019-01-09T18:29:23.074Z,6.4
2019-01-09T18:34:54.598Z,6.5
2019-01-09T18:40:17.347Z,3.6
2019-01-09T18:45:42.810Z,6.5
2019-01-09T18:51:05.496Z,5.2
2019-01-09T18:56:29.447Z,6.6
2019-01-09T19:01:53.120Z,4.9
2019-01-09T19:07:17.074Z,8.5
2019-01-09T19:12:40.761Z,10.3
2019-01-09T19:18:03.543Z,5.8
2019-01-09T19:23:36.830Z,6.7
2019-01-09T19:28:59.823Z,6
2019-01-09T19:34:33.103Z,4.5
2019-01-09T19:40:06.812Z,3.8
2019-01-09T19:45:33.802Z,5.3
2019-01-09T19:50:58.256Z,6.2
2019-01-09T19:56:22.991Z,10.3
2019-01-09T20:01:46.392Z,7
2019-01-09T20:07:09.262Z,6.4
2019-01-09T20:12:42.550Z,4.4
2019-01-09T20:18:05.182Z,5.8
2019-01-09T20:23:29.100Z,4.2
2019-01-09T20:28:51.754Z,6.2
2019-01-09T20:34:14.805Z,6.1
2019-01-09T20:39:38.141Z,5.5
2019-01-09T20:45:11.985Z,7.1
2019-01-09T20:50:48.148Z,7.4
2019-01-09T20:56:53.651Z,5.1
2019-01-09T21:02:48.149Z,6.7
2019-01-09T21:08:20.402Z,9.3
2019-01-09T21:13:43.557Z,7.1
2019-01-09T21:19:19.432Z,8.6
2019-01-09T21:24:51.937Z,6.6
2019-01-09T21:30:15.061Z,5.8
2019-01-09T21:35:38.046Z,5.2
2019-01-09T21:41:01.150Z,4.8
2019-01-09T21:46:25.155Z,7.3
2019-01-09T21:51:48.535Z,3.9
2019-01-09T21:57:13.275Z,7.2
2019-01-09T22:02:39.651Z,6.2
2019-01-09T22:08:03.392Z,7.3
2019-01-09T22:13:26.936Z,5.4
2019-01-09T22:18:50.708Z,8.1
2019-01-09T22:24:13.490Z,5.7
2019-01-09T22:29:36.247Z,8.4
2019-01-09T22:34:58.975Z,10
2019-01-09T22:40:21.726Z,5.1
2019-01-09T22:45:44.459Z,7.6
2019-01-09T22:51:07.682Z,7.1
2019-01-09T22:56:30.582Z,6
2019-01-09T23:01:55.773Z,6.9
2019-01-09T23:07:19.662Z,6
2019-01-09T23:12:43.684Z,5.2
2019-01-09T23:18:11.184Z,6.8
2019-01-09T23:23:36.637Z,8.3
2019-01-09T23:28:59.514Z,7.5
2019-01-09T23:34:22.518Z,6.3
2019-01-09T23:39:46.992Z,6.4
2019-01-09T23:45:11.812Z,6.6
2019-01-09T23:50:35.255Z,7.9
2019-01-09T23:55:57.127Z,8.4
